Time;durP1;ratioP1;P1;durP2;ratioP2;P2;SDS_P1;SDS_P2;PMS_P1;PMS_P2;Temp;Humidity;BMP_temperature;BMP_pressure;BME280_temperature;BME280_humidity;BME280_pressure;Samples;Min_cycle;Max_cycle;Signal;HPM_P1;HPM_P2
2023/10/19 00:01:18;;;;;;;3.75;1.75;;;8.80;99.90;;;;;;5033252;28;20025;-72
2023/10/19 00:03:49;;;;;;;2.80;1.67;;;8.80;99.90;;;;;;5032958;28;20541;-72
2023/10/19 00:06:17;;;;;;;3.45;1.65;;;8.80;99.90;;;;;;5031657;28;20025;-72
2023/10/19 00:08:46;;;;;;;3.33;1.50;;;8.80;99.90;;;;;;5032784;28;20021;-72
2023/10/19 00:11:22;;;;;;;3.85;1.98;;;8.70;99.90;;;;;;5033106;28;20073;-73
2023/10/19 00:13:53;;;;;;;3.17;2.05;;;8.60;99.90;;;;;;5033266;28;20029;-72
2023/10/19 00:16:23;;;;;;;3.40;2.00;;;8.60;99.90;;;;;;5032902;28;20033;-72
2023/10/19 00:18:49;;;;;;;2.95;1.70;;;8.50;99.90;;;;;;5032916;28;20075;-72
2023/10/19 00:21:25;;;;;;;4.07;1.80;;;8.60;99.90;;;;;;5036374;28;20053;-73
2023/10/19 00:23:57;;;;;;;3.85;1.70;;;8.50;99.90;;;;;;5036354;28;20024;-72
2023/10/19 00:26:26;;;;;;;3.45;1.70;;;8.60;99.90;;;;;;5036356;28;20072;-72
2023/10/19 00:28:55;;;;;;;2.95;1.77;;;8.60;99.90;;;;;;5036190;28;20026;-72
2023/10/19 00:31:21;;;;;;;3.40;1.75;;;8.50;99.90;;;;;;5036204;28;20060;-72
2023/10/19 00:33:47;;;;;;;3.20;1.80;;;8.50;99.90;;;;;;5036140;28;20033;-72
2023/10/19 00:36:13;;;;;;;3.42;1.88;;;8.40;99.90;;;;;;5036647;28;20363;-72
2023/10/19 00:38:47;;;;;;;3.47;1.70;;;8.40;99.90;;;;;;5036439;28;20466;-72
2023/10/19 00:41:14;;;;;;;5.18;1.83;;;8.30;99.90;;;;;;5036064;28;20109;-72
2023/10/19 00:43:43;;;;;;;2.90;1.70;;;8.30;99.90;;;;;;5035978;28;20568;-72
2023/10/19 00:46:52;;;;;;;3.50;1.70;;;8.30;99.90;;;;;;5035933;28;20076;-72
2023/10/19 00:49:18;;;;;;;4.45;1.50;;;8.30;99.90;;;;;;5035964;28;20493;-73
2023/10/19 00:54:33;;;;;;;3.63;1.50;;;8.30;99.90;;;;;;5036422;28;20025;-72
2023/10/19 00:57:04;;;;;;;2.95;1.80;;;8.20;99.90;;;;;;5036068;28;20516;-73
2023/10/19 00:59:30;;;;;;;3.20;1.52;;;8.10;99.90;;;;;;5035683;28;20037;-72
2023/10/19 01:04:42;;;;;;;3.72;1.83;;;8.10;99.90;;;;;;5034973;28;20080;-72
2023/10/19 01:07:21;;;;;;;3.10;1.70;;;8.10;99.90;;;;;;5033809;28;20014;-72
2023/10/19 01:09:47;;;;;;;2.78;1.58;;;8.10;99.90;;;;;;5035527;28;20025;-72
2023/10/19 01:12:38;;;;;;;4.25;1.77;;;8.10;99.90;;;;;;5035337;28;20033;-72
2023/10/19 01:15:12;;;;;;;3.42;1.67;;;8.10;99.90;;;;;;5033920;28;20076;-72
2023/10/19 01:17:38;;;;;;;3.30;1.70;;;8.00;99.90;;;;;;5035249;28;20021;-72
2023/10/19 01:20:19;;;;;;;2.72;1.83;;;8.00;99.90;;;;;;5034971;28;20033;-72
2023/10/19 01:22:53;;;;;;;3.90;2.03;;;7.90;99.90;;;;;;5029718;28;20367;-72
2023/10/19 01:25:24;;;;;;;4.75;2.13;;;7.80;99.90;;;;;;5035079;28;20386;-72
2023/10/19 01:27:56;;;;;;;3.58;1.80;;;7.80;99.90;;;;;;5034729;28;20104;-72
2023/10/19 01:30:22;;;;;;;2.45;1.52;;;7.70;99.90;;;;;;5033463;28;20037;-72
2023/10/19 01:32:47;;;;;;;3.25;1.80;;;7.70;99.90;;;;;;5034968;28;20028;-72
2023/10/19 01:35:13;;;;;;;3.50;2.10;;;7.70;99.90;;;;;;5033505;28;20026;-72
2023/10/19 01:37:39;;;;;;;3.35;1.90;;;7.70;99.90;;;;;;5034767;28;20038;-72
2023/10/19 01:40:05;;;;;;;4.68;2.00;;;7.70;99.90;;;;;;5034050;28;20431;-72
2023/10/19 01:42:31;;;;;;;3.25;2.13;;;7.70;99.90;;;;;;5033721;28;20056;-72
2023/10/19 01:44:56;;;;;;;3.40;1.90;;;7.60;99.90;;;;;;5034231;28;20022;-72
2023/10/19 01:47:23;;;;;;;2.55;1.50;;;7.60;99.90;;;;;;5034610;28;20057;-72
2023/10/19 01:49:52;;;;;;;2.85;1.95;;;7.60;99.90;;;;;;5034716;28;20025;-72
2023/10/19 01:52:18;;;;;;;2.72;1.70;;;7.60;99.90;;;;;;5034750;28;20061;-72
2023/10/19 01:54:45;;;;;;;2.95;1.77;;;7.60;99.90;;;;;;5034655;28;20563;-72
2023/10/19 01:57:12;;;;;;;3.05;1.60;;;7.60;99.90;;;;;;5034483;28;20037;-72
2023/10/19 01:59:37;;;;;;;2.53;1.55;;;7.60;99.90;;;;;;5034469;28;20025;-72
2023/10/19 02:02:03;;;;;;;3.13;1.80;;;7.60;99.90;;;;;;5034802;28;20385;-72
2023/10/19 02:04:29;;;;;;;2.45;1.38;;;7.60;99.90;;;;;;5034771;28;20389;-73
2023/10/19 02:06:54;;;;;;;2.75;1.50;;;7.40;99.90;;;;;;5034699;28;20485;-72
2023/10/19 02:09:32;;;;;;;2.83;1.45;;;7.40;99.90;;;;;;5034261;28;20038;-72
2023/10/19 02:11:58;;;;;;;3.58;1.70;;;7.30;99.90;;;;;;5034676;28;20021;-73
2023/10/19 02:14:30;;;;;;;2.55;1.38;;;7.30;99.90;;;;;;5034555;28;20083;-73
2023/10/19 02:16:58;;;;;;;3.22;1.40;;;7.20;99.90;;;;;;5034791;28;20075;-72
2023/10/19 02:19:25;;;;;;;2.63;1.52;;;7.20;99.90;;;;;;5034069;28;20026;-72
2023/10/19 02:21:57;;;;;;;3.53;1.40;;;7.20;99.90;;;;;;5034463;28;20079;-73
2023/10/19 02:24:23;;;;;;;2.42;1.50;;;7.20;99.90;;;;;;5034044;28;20044;-73
2023/10/19 02:26:54;;;;;;;2.85;1.60;;;7.20;99.90;;;;;;5034076;28;20018;-72
2023/10/19 02:29:21;;;;;;;;;;;7.10;99.90;;;;;;5033175;28;20018;-72
2023/10/19 02:31:48;;;;;;;3.47;1.63;;;7.20;99.90;;;;;;5033952;28;19951;-73
2023/10/19 02:34:17;;;;;;;4.35;1.65;;;7.10;99.90;;;;;;5034202;28;20354;-73
2023/10/19 02:36:44;;;;;;;2.85;1.95;;;7.20;99.90;;;;;;5034433;28;20032;-71
2023/10/19 02:39:13;;;;;;;2.65;1.70;;;7.20;99.90;;;;;;5033900;28;20025;-71
2023/10/19 02:41:41;;;;;;;3.92;1.90;;;7.20;99.90;;;;;;5033912;28;20025;-71
2023/10/19 02:44:19;;;;;;;2.97;1.75;;;7.10;99.90;;;;;;5035137;28;20028;-71
2023/10/19 02:46:46;;;;;;;2.60;1.63;;;7.10;99.90;;;;;;5035386;28;20482;-71
2023/10/19 02:49:15;;;;;;;7.32;2.03;;;7.10;99.90;;;;;;5035021;28;20110;-71
2023/10/19 02:51:45;;;;;;;2.78;1.67;;;7.00;99.90;;;;;;5033692;28;20129;-71
2023/10/19 02:54:24;;;;;;;4.95;1.60;;;7.00;99.90;;;;;;5033829;28;20029;-71
2023/10/19 02:56:53;;;;;;;2.88;1.77;;;7.00;99.90;;;;;;5017529;28;20029;-70
2023/10/19 02:59:22;;;;;;;3.55;1.83;;;7.00;99.90;;;;;;5033332;28;20030;-71
2023/10/19 03:02:00;;;;;;;2.70;1.60;;;7.00;99.90;;;;;;5033869;28;20045;-71
2023/10/19 03:04:28;;;;;;;2.85;1.65;;;7.00;99.90;;;;;;5033868;28;20407;-71
2023/10/19 03:06:56;;;;;;;8.23;2.45;;;7.00;99.90;;;;;;5033563;28;20022;-71
2023/10/19 03:09:24;;;;;;;3.58;2.17;;;7.00;99.90;;;;;;5033471;28;20195;-71
2023/10/19 03:11:54;;;;;;;3.72;1.90;;;7.00;99.90;;;;;;5033452;28;20022;-71
2023/10/19 03:14:20;;;;;;;3.35;2.03;;;7.00;99.90;;;;;;5033770;28;20466;-71
2023/10/19 03:16:46;;;;;;;4.40;1.95;;;7.10;99.90;;;;;;5033533;28;20076;-71
2023/10/19 03:19:14;;;;;;;4.13;2.00;;;7.10;99.90;;;;;;5033737;28;20748;-71
2023/10/19 03:21:43;;;;;;;3.53;1.85;;;7.00;99.90;;;;;;5033577;28;20489;-71
2023/10/19 03:24:13;;;;;;;2.97;1.80;;;7.10;99.90;;;;;;5034839;28;20030;-71
2023/10/19 03:26:48;;;;;;;3.80;2.17;;;7.00;99.90;;;;;;5036082;28;20128;-71
2023/10/19 03:29:15;;;;;;;3.33;2.08;;;7.00;99.90;;;;;;5035130;28;20025;-71
2023/10/19 03:31:44;;;;;;;3.63;2.13;;;7.00;99.90;;;;;;5036209;28;20030;-71
2023/10/19 03:34:16;;;;;;;3.38;1.90;;;7.10;99.90;;;;;;5034506;28;20490;-72
2023/10/19 03:36:42;;;;;;;3.33;1.92;;;7.10;99.90;;;;;;5036342;28;20212;-72
2023/10/19 03:39:12;;;;;;;5.35;2.45;;;7.10;99.90;;;;;;5037086;28;20033;-71
2023/10/19 03:41:41;;;;;;;3.70;2.17;;;7.00;99.90;;;;;;5033733;28;20026;-72
2023/10/19 03:44:13;;;;;;;3.80;2.08;;;7.00;99.90;;;;;;5033552;28;20026;-72
2023/10/19 03:46:52;;;;;;;5.30;2.03;;;7.10;99.90;;;;;;5034102;28;20028;-71
2023/10/19 03:49:21;;;;;;;4.88;1.75;;;7.00;99.90;;;;;;5034523;28;20443;-72
2023/10/19 03:52:02;;;;;;;3.85;1.70;;;7.10;99.90;;;;;;5033296;28;20033;-71
2023/10/19 03:54:29;;;;;;;2.58;1.52;;;7.10;99.90;;;;;;5038312;28;20466;-71
2023/10/19 03:56:57;;;;;;;5.50;1.98;;;7.10;99.90;;;;;;5037292;28;20052;-71
2023/10/19 03:59:23;;;;;;;2.72;1.88;;;7.10;99.90;;;;;;5036726;28;20033;-71
2023/10/19 04:01:49;;;;;;;2.92;1.98;;;7.10;99.90;;;;;;5036978;28;20028;-71
2023/10/19 04:04:16;;;;;;;4.00;1.92;;;7.10;99.90;;;;;;5037020;28;20034;-71
2023/10/19 04:06:48;;;;;;;3.20;1.90;;;7.10;99.90;;;;;;5036751;28;20028;-71
2023/10/19 04:09:18;;;;;;;2.92;1.85;;;7.10;99.90;;;;;;5036864;28;20046;-71
2023/10/19 04:11:52;;;;;;;4.18;2.00;;;7.10;99.90;;;;;;5037000;28;20108;-71
2023/10/19 04:14:20;;;;;;;4.15;1.92;;;7.10;99.90;;;;;;5036583;28;20026;-72
2023/10/19 04:16:48;;;;;;;4.85;2.00;;;7.00;99.90;;;;;;5037111;28;20049;-71
2023/10/19 04:19:14;;;;;;;3.25;2.10;;;7.00;99.90;;;;;;5036789;28;20485;-72
2023/10/19 04:21:43;;;;;;;6.35;2.90;;;7.10;99.90;;;;;;5036426;28;20429;-71
2023/10/19 04:24:10;;;;;;;5.63;2.80;;;7.10;99.90;;;;;;5036378;28;20018;-71
2023/10/19 04:26:39;;;;;;;5.00;2.20;;;7.10;99.90;;;;;;5036608;28;20036;-71
2023/10/19 04:29:16;;;;;;;3.47;2.00;;;7.20;99.90;;;;;;5036202;28;20022;-71
2023/10/19 04:31:54;;;;;;;3.50;2.00;;;7.20;99.90;;;;;;5036289;28;20017;-71
2023/10/19 04:34:21;;;;;;;6.15;1.83;;;7.20;99.90;;;;;;5036787;28;20022;-71
2023/10/19 04:36:50;;;;;;;3.58;2.15;;;7.20;99.90;;;;;;5036148;28;20100;-71
2023/10/19 04:39:19;;;;;;;4.20;1.80;;;7.30;99.90;;;;;;5035950;28;20064;-71
2023/10/19 04:41:48;;;;;;;5.10;2.72;;;7.30;99.90;;;;;;5017382;28;20080;-71
2023/10/19 04:44:15;;;;;;;4.75;3.05;;;7.30;99.90;;;;;;5019097;28;20033;-71
2023/10/19 04:46:41;;;;;;;5.38;3.30;;;7.30;99.90;;;;;;5017584;28;20029;-71
2023/10/19 04:49:07;;;;;;;5.65;3.55;;;7.30;99.90;;;;;;5017371;28;20018;-72
2023/10/19 04:51:34;;;;;;;6.65;4.00;;;7.30;99.90;;;;;;5015668;28;20111;-72
2023/10/19 04:54:00;;;;;;;6.80;3.58;;;7.30;99.90;;;;;;5014998;28;20033;-72
2023/10/19 04:56:25;;;;;;;6.07;3.92;;;7.30;99.90;;;;;;5015982;28;20026;-72
2023/10/19 04:58:52;;;;;;;7.38;4.30;;;7.30;99.90;;;;;;5014783;28;20375;-71
2023/10/19 05:01:18;;;;;;;9.40;5.60;;;7.30;99.90;;;;;;5015233;28;20026;-72
2023/10/19 05:03:44;;;;;;;9.73;5.90;;;7.30;99.90;;;;;;5016056;28;20484;-73
2023/10/19 05:06:10;;;;;;;16.55;10.23;;;7.30;99.90;;;;;;5015715;28;20080;-72
2023/10/19 05:08:37;;;;;;;21.23;14.77;;;7.30;99.90;;;;;;5015775;28;20422;-72
2023/10/19 05:11:03;;;;;;;14.55;9.77;;;7.30;99.90;;;;;;5047714;28;20045;-73
2023/10/19 05:13:31;;;;;;;15.75;7.57;;;7.30;99.90;;;;;;5015719;28;20036;-72
2023/10/19 05:15:58;;;;;;;9.65;4.50;;;7.30;99.90;;;;;;5015995;28;20091;-73
2023/10/19 05:18:25;;;;;;;15.15;6.68;;;7.30;99.90;;;;;;5015694;28;20444;-73
2023/10/19 05:20:55;;;;;;;12.05;5.70;;;7.30;99.90;;;;;;5015800;28;20091;-72
2023/10/19 05:23:25;;;;;;;8.95;4.80;;;7.30;99.90;;;;;;5015548;28;20032;-72
2023/10/19 05:25:53;;;;;;;6.78;3.97;;;7.30;99.90;;;;;;5015520;28;20025;-73
2023/10/19 05:28:19;;;;;;;7.93;3.30;;;7.30;99.90;;;;;;5015441;28;20038;-72
2023/10/19 05:30:45;;;;;;;10.75;5.22;;;7.30;99.90;;;;;;5015342;28;20034;-73
2023/10/19 05:33:11;;;;;;;9.30;5.25;;;7.30;99.90;;;;;;5015576;28;20033;-73
2023/10/19 05:35:40;;;;;;;7.25;4.53;;;7.20;99.90;;;;;;5015608;28;20105;-73
2023/10/19 05:38:07;;;;;;;9.25;4.65;;;7.30;99.90;;;;;;5015357;28;20030;-73
2023/10/19 05:40:33;;;;;;;6.57;4.60;;;7.30;99.90;;;;;;5015053;28;20033;-72
2023/10/19 05:43:01;;;;;;;5.72;3.35;;;7.30;99.90;;;;;;5015463;28;20028;-72
2023/10/19 05:45:28;;;;;;;5.35;3.00;;;7.30;99.90;;;;;;5015111;28;20028;-73
2023/10/19 05:47:55;;;;;;;3.80;2.50;;;7.40;99.90;;;;;;5015297;28;20108;-73
2023/10/19 05:50:21;;;;;;;4.63;2.25;;;7.30;99.90;;;;;;5014942;28;20030;-72
2023/10/19 05:52:48;;;;;;;5.28;2.58;;;7.30;99.90;;;;;;5015497;28;20033;-73
2023/10/19 05:55:14;;;;;;;4.90;2.85;;;7.40;99.90;;;;;;5014953;28;20025;-73
2023/10/19 05:57:40;;;;;;;4.55;2.78;;;7.40;99.90;;;;;;5014641;28;20041;-73
2023/10/19 06:00:14;;;;;;;3.80;2.30;;;7.40;99.90;;;;;;5014627;28;20030;-72
2023/10/19 06:02:44;;;;;;;5.03;3.10;;;7.40;99.90;;;;;;5015447;28;20541;-73
2023/10/19 06:05:10;;;;;;;4.65;3.13;;;7.40;99.90;;;;;;5014780;28;20045;-73
2023/10/19 06:07:37;;;;;;;7.80;3.17;;;7.50;99.90;;;;;;5014741;28;20041;-73
2023/10/19 06:10:06;;;;;;;3.63;2.50;;;7.50;99.90;;;;;;5014498;28;20034;-73
2023/10/19 06:12:32;;;;;;;4.18;2.60;;;7.50;99.90;;;;;;5014487;28;20456;-73
2023/10/19 06:15:00;;;;;;;6.03;2.60;;;7.50;99.90;;;;;;5014519;28;20057;-72
2023/10/19 06:17:26;;;;;;;5.15;2.53;;;7.50;99.90;;;;;;5013953;28;20029;-73
2023/10/19 06:19:52;;;;;;;4.45;2.30;;;7.60;99.90;;;;;;5014335;28;20037;-73
2023/10/19 06:22:18;;;;;;;4.30;2.58;;;7.60;99.90;;;;;;5014455;28;20501;-72
2023/10/19 06:24:43;;;;;;;5.65;2.50;;;7.60;99.90;;;;;;5014422;28;20025;-73
2023/10/19 06:27:10;;;;;;;5.60;2.55;;;7.70;99.90;;;;;;5014375;28;20041;-73
2023/10/19 06:29:36;;;;;;;4.07;2.80;;;7.70;99.90;;;;;;5014204;28;20038;-72
2023/10/19 06:32:02;;;;;;;4.57;2.60;;;7.70;99.90;;;;;;5014238;28;20107;-72
2023/10/19 06:34:28;;;;;;;4.20;2.60;;;7.70;99.90;;;;;;5014252;28;20393;-73
2023/10/19 06:36:54;;;;;;;3.95;2.22;;;7.70;99.90;;;;;;5014205;28;20121;-73
2023/10/19 06:39:21;;;;;;;4.22;2.05;;;7.70;99.90;;;;;;5013929;28;20112;-72
2023/10/19 06:41:47;;;;;;;4.30;2.13;;;7.80;99.90;;;;;;5014145;28;20121;-73
2023/10/19 06:44:13;;;;;;;2.88;2.03;;;7.80;99.90;;;;;;5014132;28;20081;-73
2023/10/19 06:46:39;;;;;;;3.38;1.85;;;7.80;99.90;;;;;;5012892;28;20053;-73
2023/10/19 06:49:05;;;;;;;3.28;1.95;;;7.90;99.90;;;;;;5014375;28;20037;-72
2023/10/19 06:51:33;;;;;;;4.28;2.45;;;7.90;99.90;;;;;;5014064;28;20026;-72
2023/10/19 06:53:59;;;;;;;5.97;2.40;;;8.00;99.90;;;;;;5013917;28;20018;-72
2023/10/19 06:56:24;;;;;;;4.00;2.28;;;8.00;99.90;;;;;;5013840;28;20022;-73
2023/10/19 06:58:50;;;;;;;5.60;2.53;;;8.10;99.90;;;;;;5013763;28;20532;-72
2023/10/19 07:01:17;;;;;;;4.30;2.58;;;8.10;99.90;;;;;;5013746;28;20034;-73
2023/10/19 07:03:43;;;;;;;5.47;2.60;;;8.10;99.90;;;;;;5013595;28;20026;-72
2023/10/19 07:06:13;;;;;;;5.63;2.47;;;8.20;99.90;;;;;;5013560;28;20053;-72
2023/10/19 07:08:40;;;;;;;3.88;2.45;;;8.30;99.90;;;;;;5013492;28;20070;-72
2023/10/19 07:11:07;;;;;;;5.10;2.92;;;8.30;99.90;;;;;;5013521;28;20030;-72
2023/10/19 07:13:33;;;;;;;3.75;2.17;;;8.30;99.90;;;;;;5012879;28;20121;-72
2023/10/19 07:15:59;;;;;;;5.68;2.45;;;8.40;99.90;;;;;;5013765;28;20103;-72
2023/10/19 07:18:25;;;;;;;4.38;2.20;;;8.40;99.90;;;;;;5014367;28;20026;-72
2023/10/19 07:20:53;;;;;;;5.47;2.80;;;8.50;99.90;;;;;;5013975;28;20022;-72
2023/10/19 07:23:21;;;;;;;5.03;2.13;;;8.60;99.90;;;;;;5013736;28;20026;-73
2023/10/19 07:25:56;;;;;;;4.47;2.42;;;8.70;99.90;;;;;;5012553;28;20097;-72
2023/10/19 07:28:22;;;;;;;3.85;2.10;;;8.70;99.90;;;;;;5016077;28;20026;-72
2023/10/19 07:30:48;;;;;;;3.95;2.17;;;8.70;99.90;;;;;;5017442;28;20028;-72
2023/10/19 07:33:17;;;;;;;6.10;2.35;;;8.80;99.90;;;;;;5017340;28;20446;-72
2023/10/19 07:35:46;;;;;;;3.42;2.03;;;8.80;99.90;;;;;;5017113;28;20390;-72
2023/10/19 07:38:13;;;;;;;3.90;2.25;;;8.90;99.90;;;;;;5017614;28;20022;-72
2023/10/19 07:40:39;;;;;;;4.03;2.72;;;9.00;99.90;;;;;;5017320;28;20112;-72
2023/10/19 07:43:05;;;;;;;6.72;3.70;;;9.10;99.90;;;;;;5036893;28;20437;-72
2023/10/19 07:45:31;;;;;;;4.75;3.00;;;9.20;99.90;;;;;;5035681;28;20072;-72
2023/10/19 07:47:58;;;;;;;5.10;2.97;;;9.20;99.90;;;;;;5037057;28;20047;-72
2023/10/19 07:50:23;;;;;;;4.32;2.70;;;9.30;99.90;;;;;;5037124;28;20028;-72
2023/10/19 07:52:53;;;;;;;6.35;2.80;;;9.40;99.90;;;;;;5036976;28;20029;-72
2023/10/19 07:55:22;;;;;;;3.58;2.25;;;9.50;99.90;;;;;;5037081;28;20026;-73
2023/10/19 07:57:52;;;;;;;5.40;2.55;;;9.50;99.90;;;;;;5036888;28;20086;-73
2023/10/19 08:00:20;;;;;;;4.60;2.20;;;9.50;99.90;;;;;;5037073;28;20497;-73
2023/10/19 08:02:46;;;;;;;5.97;2.10;;;9.60;99.90;;;;;;5036863;28;20026;-73
2023/10/19 08:05:18;;;;;;;5.10;2.25;;;9.70;99.90;;;;;;5036808;28;20022;-72
2023/10/19 08:07:44;;;;;;;3.22;1.77;;;9.70;99.90;;;;;;5036762;28;20025;-72
2023/10/19 08:10:11;;;;;;;3.20;1.85;;;9.80;99.90;;;;;;5036645;28;20397;-72
2023/10/19 08:12:41;;;;;;;4.40;2.20;;;9.80;99.90;;;;;;5036846;28;20037;-72
2023/10/19 08:15:13;;;;;;;3.15;2.20;;;9.90;99.90;;;;;;5036662;28;20387;-73
2023/10/19 08:17:40;;;;;;;3.72;1.90;;;10.00;99.90;;;;;;5036552;28;20032;-72
2023/10/19 08:20:15;;;;;;;4.97;1.92;;;10.10;99.90;;;;;;5036321;28;20025;-72
2023/10/19 08:22:46;;;;;;;3.58;2.10;;;10.10;99.90;;;;;;5035408;28;20021;-72
2023/10/19 08:25:14;;;;;;;3.38;2.03;;;10.20;99.90;;;;;;5036535;28;20032;-72
2023/10/19 08:27:45;;;;;;;3.70;2.00;;;10.30;99.90;;;;;;5036343;28;20022;-73
2023/10/19 08:30:12;;;;;;;3.15;1.90;;;10.40;99.90;;;;;;5036526;28;20032;-72
2023/10/19 08:32:39;;;;;;;7.07;4.25;;;10.50;99.90;;;;;;5035411;28;20524;-72
2023/10/19 08:35:05;;;;;;;12.75;6.18;;;10.60;99.90;;;;;;5036582;28;20029;-72
2023/10/19 08:37:31;;;;;;;9.60;5.18;;;10.70;99.90;;;;;;5036511;28;20032;-72
2023/10/19 08:39:57;;;;;;;8.95;5.32;;;10.90;99.90;;;;;;5034983;28;20382;-72
2023/10/19 08:42:24;;;;;;;7.85;3.33;;;11.00;99.90;;;;;;5036055;28;20032;-72
2023/10/19 08:44:49;;;;;;;5.60;2.67;;;11.10;99.90;;;;;;5036334;28;20029;-72
2023/10/19 08:47:15;;;;;;;4.28;2.78;;;11.20;99.90;;;;;;5036960;28;20026;-73
2023/10/19 08:49:42;;;;;;;6.53;3.42;;;11.30;99.90;;;;;;5036168;28;20084;-72
2023/10/19 08:52:08;;;;;;;6.57;3.42;;;11.40;99.90;;;;;;5035880;28;20044;-72
2023/10/19 08:54:34;;;;;;;6.53;4.13;;;11.60;99.90;;;;;;5036153;28;20026;-73
2023/10/19 08:57:00;;;;;;;7.38;3.67;;;11.70;99.90;;;;;;5035798;28;20021;-72
2023/10/19 08:59:26;;;;;;;5.88;3.35;;;11.90;99.90;;;;;;5035617;28;20393;-72
2023/10/19 09:02:01;;;;;;;5.32;3.20;;;12.00;99.90;;;;;;5036354;28;20029;-72
2023/10/19 09:04:26;;;;;;;7.82;4.30;;;12.10;99.90;;;;;;5035837;28;20025;-72
2023/10/19 09:06:55;;;;;;;7.50;4.18;;;12.20;99.90;;;;;;5035907;28;20401;-72
2023/10/19 09:09:21;;;;;;;6.55;3.92;;;12.30;99.90;;;;;;5035577;28;20017;-73
2023/10/19 09:11:50;;;;;;;13.95;4.03;;;12.40;99.90;;;;;;5034489;28;20029;-73
2023/10/19 09:14:30;;;;;;;5.68;3.28;;;12.60;99.90;;;;;;5034289;28;20029;-73
2023/10/19 09:16:57;;;;;;;5.50;3.45;;;12.70;99.90;;;;;;5035845;28;20044;-73
2023/10/19 09:19:41;;;;;;;6.75;3.40;;;12.70;99.90;;;;;;5035366;28;20451;-72
2023/10/19 09:22:08;;;;;;;5.38;3.10;;;12.80;99.90;;;;;;5035352;28;20508;-73
2023/10/19 09:24:37;;;;;;;7.50;3.50;;;12.80;99.90;;;;;;5035340;28;20112;-72
2023/10/19 09:27:06;;;;;;;6.40;3.28;;;12.80;99.90;;;;;;5034010;28;20033;-73
2023/10/19 09:29:31;;;;;;;6.15;3.47;;;12.80;99.90;;;;;;5035439;28;20485;-72
2023/10/19 09:32:03;;;;;;;6.97;3.45;;;12.80;99.90;;;;;;5017525;28;20037;-73
2023/10/19 09:34:33;;;;;;;5.40;3.75;;;12.90;99.90;;;;;;5034301;28;20059;-73
2023/10/19 09:37:03;;;;;;;7.43;5.03;;;13.00;99.90;;;;;;5035032;28;20025;-73
2023/10/19 09:39:35;;;;;;;9.65;6.15;;;13.10;99.90;;;;;;5034902;28;20116;-72
2023/10/19 09:42:06;;;;;;;12.52;6.65;;;13.20;99.90;;;;;;5035232;28;20067;-72
2023/10/19 09:44:40;;;;;;;8.68;6.20;;;13.20;99.90;;;;;;5034959;28;20025;-73
2023/10/19 09:47:12;;;;;;;12.85;6.95;;;13.30;99.90;;;;;;5032946;28;20033;-72
2023/10/19 09:49:42;;;;;;;9.82;6.03;;;13.40;99.90;;;;;;5034199;28;20031;-72
2023/10/19 09:52:10;;;;;;;10.00;6.03;;;13.40;99.90;;;;;;5035218;28;20021;-73
2023/10/19 09:54:59;;;;;;;11.63;6.43;;;13.50;99.90;;;;;;5036322;28;20026;-73
2023/10/19 09:57:51;;;;;;;13.10;6.75;;;13.50;99.90;;;;;;5035193;28;20058;-73
2023/10/19 10:00:23;;;;;;;10.38;6.65;;;13.50;99.90;;;;;;5035632;28;20052;-72
2023/10/19 10:02:49;;;;;;;11.85;6.95;;;13.60;99.90;;;;;;5034614;28;20057;-73
2023/10/19 10:05:53;;;;;;;11.75;6.57;;;13.60;99.90;;;;;;5034573;28;20030;-72
2023/10/19 10:08:22;;;;;;;12.48;8.35;;;13.70;99.90;;;;;;5032560;28;20041;-72
2023/10/19 10:10:49;;;;;;;13.07;7.78;;;13.70;99.90;;;;;;5032238;28;20164;-72
2023/10/19 10:13:41;;;;;;;9.77;6.55;;;13.80;99.90;;;;;;5039270;28;20042;-73
2023/10/19 10:16:07;;;;;;;11.52;6.30;;;13.90;99.90;;;;;;5034437;28;20041;-72
2023/10/19 10:18:35;;;;;;;12.43;6.18;;;14.00;99.90;;;;;;5033037;28;20034;-72
2023/10/19 10:21:17;;;;;;;10.50;5.88;;;14.20;99.90;;;;;;5034442;28;20504;-73
2023/10/19 10:23:47;;;;;;;12.27;5.22;;;14.40;99.90;;;;;;5034522;28;20385;-72
2023/10/19 10:26:13;;;;;;;9.77;5.03;;;14.50;99.90;;;;;;5034316;28;20026;-72
2023/10/19 10:28:40;;;;;;;6.72;4.13;;;14.60;99.90;;;;;;5032878;28;20049;-72
2023/10/19 10:31:18;;;;;;;8.32;4.97;;;14.70;99.90;;;;;;5034018;28;20520;-72
2023/10/19 10:33:46;;;;;;;10.52;3.80;;;14.80;99.90;;;;;;5032792;28;20029;-72
2023/10/19 10:36:13;;;;;;;9.68;4.60;;;14.90;99.90;;;;;;5034010;28;20025;-72
2023/10/19 10:38:40;;;;;;;12.95;6.07;;;15.00;99.90;;;;;;5034041;28;20036;-72
2023/10/19 10:41:09;;;;;;;8.13;4.95;;;15.10;99.90;;;;;;5033903;28;20391;-72
2023/10/19 10:43:52;;;;;;;12.30;6.70;;;15.20;99.90;;;;;;5033958;28;20022;-71
2023/10/19 10:46:19;;;;;;;11.02;5.93;;;15.30;99.90;;;;;;5033838;28;20076;-72
2023/10/19 10:48:45;;;;;;;8.48;5.68;;;15.40;99.90;;;;;;5033590;28;20025;-72
2023/10/19 10:51:19;;;;;;;12.63;6.25;;;15.50;99.90;;;;;;5027561;28;20029;-72
2023/10/19 10:53:52;;;;;;;8.93;5.53;;;15.70;99.90;;;;;;5032136;28;20559;-72
2023/10/19 10:56:20;;;;;;;7.97;5.35;;;15.80;99.90;;;;;;5032295;28;20030;-72
2023/10/19 10:58:46;;;;;;;11.40;6.70;;;16.00;99.90;;;;;;5033431;28;20104;-71
2023/10/19 11:01:13;;;;;;;8.77;6.60;;;16.10;99.90;;;;;;5032314;28;20120;-71
2023/10/19 11:03:39;;;;;;;9.40;6.57;;;16.30;99.90;;;;;;5032891;28;20049;-72
2023/10/19 11:06:08;;;;;;;11.02;6.43;;;16.40;99.90;;;;;;5033371;28;20030;-72
2023/10/19 11:08:35;;;;;;;8.95;6.03;;;16.60;99.90;;;;;;5033437;28;20113;-72
2023/10/19 11:11:05;;;;;;;11.25;7.05;;;16.70;99.90;;;;;;5033181;28;20056;-72
2023/10/19 11:13:33;;;;;;;16.10;6.63;;;16.80;99.90;;;;;;5032074;28;20032;-72
2023/10/19 11:16:01;;;;;;;9.68;6.70;;;16.80;99.90;;;;;;5033081;28;20029;-71
2023/10/19 11:18:37;;;;;;;12.07;6.95;;;16.80;99.90;;;;;;5033267;28;20033;-72
2023/10/19 11:21:06;;;;;;;13.40;7.68;;;16.80;99.90;;;;;;5026798;28;20390;-72
2023/10/19 11:23:41;;;;;;;13.30;6.93;;;16.90;99.90;;;;;;5033363;28;20478;-72
2023/10/19 11:26:07;;;;;;;12.80;7.03;;;16.90;99.90;;;;;;5033305;28;20481;-72
2023/10/19 11:28:33;;;;;;;10.30;7.15;;;17.00;99.90;;;;;;5033456;28;20105;-72
2023/10/19 11:31:13;;;;;;;9.20;5.53;;;17.20;99.90;;;;;;5033157;28;20367;-71
2023/10/19 11:33:41;;;;;;;8.30;5.50;;;17.20;99.90;;;;;;5018570;28;20561;-72
2023/10/19 11:36:07;;;;;;;9.13;5.85;;;17.30;99.90;;;;;;5033051;28;20443;-72
2023/10/19 11:38:32;;;;;;;11.70;6.38;;;17.40;99.90;;;;;;5033198;28;20037;-72
2023/10/19 11:40:58;;;;;;;13.68;6.72;;;17.50;99.90;;;;;;5032902;28;20033;-72
2023/10/19 11:43:24;;;;;;;10.52;6.55;;;17.60;99.90;;;;;;5032968;28;20482;-71
2023/10/19 11:45:50;;;;;;;9.55;6.40;;;17.60;99.90;;;;;;5032782;28;20109;-71
2023/10/19 11:48:15;;;;;;;8.88;5.88;;;17.70;99.90;;;;;;5032915;28;20087;-71
2023/10/19 11:50:41;;;;;;;10.52;6.63;;;17.90;99.90;;;;;;5032886;28;20034;-71
2023/10/19 11:53:09;;;;;;;11.95;7.55;;;18.10;99.90;;;;;;5031729;28;20021;-71
2023/10/19 11:55:35;;;;;;;11.75;7.00;;;18.20;99.90;;;;;;5031561;28;20450;-72
2023/10/19 11:58:01;;;;;;;12.30;7.50;;;18.40;99.90;;;;;;5031428;28;20068;-72
2023/10/19 12:00:33;;;;;;;11.15;7.70;;;18.50;99.90;;;;;;5032793;28;20029;-72
2023/10/19 12:02:59;;;;;;;11.40;7.10;;;18.70;99.90;;;;;;5030945;28;20501;-71
2023/10/19 12:05:25;;;;;;;12.60;5.63;;;18.90;99.90;;;;;;5030886;28;20030;-71
2023/10/19 12:07:51;;;;;;;10.90;5.95;;;19.00;99.90;;;;;;5030906;28;20029;-71
2023/10/19 12:10:20;;;;;;;10.82;6.32;;;19.10;99.90;;;;;;5031296;28;20033;-71
2023/10/19 12:12:46;;;;;;;8.10;5.18;;;19.20;99.90;;;;;;5031424;28;20029;-71
2023/10/19 12:15:12;;;;;;;8.15;5.90;;;19.20;99.90;;;;;;5036309;28;20108;-72
2023/10/19 12:17:38;;;;;;;7.78;5.40;;;19.30;99.90;;;;;;5035619;28;20022;-72
2023/10/19 12:20:06;;;;;;;9.32;6.57;;;19.50;99.90;;;;;;5036372;28;20176;-72
2023/10/19 12:22:37;;;;;;;11.70;6.60;;;19.60;99.90;;;;;;5036520;28;20017;-71
2023/10/19 12:25:04;;;;;;;10.02;5.80;;;19.60;99.90;;;;;;5036805;28;20126;-72
2023/10/19 12:27:30;;;;;;;9.80;4.78;;;19.70;99.90;;;;;;5036690;28;20030;-72
2023/10/19 12:29:56;;;;;;;8.20;5.78;;;19.90;99.90;;;;;;5036585;28;20022;-72
2023/10/19 12:32:22;;;;;;;14.00;5.88;;;19.90;99.90;;;;;;5036329;28;20040;-72
2023/10/19 12:34:53;;;;;;;9.18;4.68;;;19.90;99.90;;;;;;5036587;28;20105;-72
2023/10/19 12:37:19;;;;;;;8.13;4.65;;;20.00;99.90;;;;;;5036580;28;20025;-72
2023/10/19 12:39:48;;;;;;;6.47;2.78;;;20.10;99.90;;;;;;5036055;28;20037;-72
2023/10/19 12:42:14;;;;;;;4.10;2.20;;;20.20;99.90;;;;;;5036082;28;20560;-71
2023/10/19 12:44:43;;;;;;;5.53;1.58;;;20.40;99.90;;;;;;5036155;28;20053;-72
2023/10/19 12:47:11;;;;;;;5.10;1.90;;;20.50;99.90;;;;;;5034838;28;20029;-72
2023/10/19 12:49:39;;;;;;;4.88;1.67;;;20.60;99.90;;;;;;5036253;28;20087;-72
2023/10/19 12:52:07;;;;;;;5.43;1.63;;;20.60;99.90;;;;;;5036029;28;20025;-72
2023/10/19 12:54:36;;;;;;;4.18;1.20;;;20.80;99.90;;;;;;5036379;28;20030;-72
2023/10/19 12:57:03;;;;;;;4.40;1.73;;;20.90;99.90;;;;;;5035934;28;20080;-72
2023/10/19 12:59:30;;;;;;;4.13;1.60;;;21.00;99.90;;;;;;5035791;28;20091;-71
2023/10/19 13:01:58;;;;;;;7.05;1.52;;;21.10;99.90;;;;;;5036056;28;20386;-72
2023/10/19 13:04:24;;;;;;;4.10;1.67;;;21.30;99.90;;;;;;5035714;28;20022;-70
2023/10/19 13:06:51;;;;;;;4.22;1.80;;;21.40;99.90;;;;;;5035771;28;20025;-69